Time;durP1;ratioP1;P1;durP2;ratioP2;P2;SDS_P1;SDS_P2;PMS_P1;PMS_P2;Temp;Humidity;BMP_temperature;BMP_pressure;BME280_temperature;BME280_humidity;BME280_pressure;Samples;Min_cycle;Max_cycle;Signal;HPM_P1;HPM_P2
2021/08/28 00:00:20;;;;;;;22.25;20.05;;;;;;;25.06;58.74;99058.97;5094051;28;20051;-74
2021/08/28 00:02:45;;;;;;;23.35;20.85;;;;;;;24.79;58.89;99019.75;5093578;28;20526;-74
2021/08/28 00:05:12;;;;;;;25.58;22.25;;;;;;;24.66;59.08;98988.00;5093470;28;20088;-74
2021/08/28 00:07:37;;;;;;;21.48;19.38;;;;;;;25.08;59.05;99048.69;5093656;28;20020;-74
2021/08/28 00:10:05;;;;;;;22.02;19.88;;;;;;;25.14;58.65;99052.94;5093489;28;20016;-74
2021/08/28 00:12:31;;;;;;;21.20;19.05;;;;;;;24.98;58.63;99030.66;5093325;28;20028;-74
2021/08/28 00:14:57;;;;;;;22.35;20.15;;;;;;;25.10;58.82;99051.91;5092914;28;20553;-74
2021/08/28 00:17:22;;;;;;;22.85;20.23;;;;;;;25.07;59.10;99058.69;5093487;28;20028;-74
2021/08/28 00:19:48;;;;;;;21.95;19.85;;;;;;;24.64;59.02;98977.50;5092149;28;20027;-74
2021/08/28 00:22:13;;;;;;;23.30;21.02;;;;;;;24.98;58.73;99033.38;5093392;28;20477;-74
2021/08/28 00:24:38;;;;;;;21.83;19.60;;;;;;;24.99;58.91;99046.59;5093354;28;20020;-82
2021/08/28 00:27:04;;;;;;;23.38;20.80;;;;;;;24.97;58.69;99042.53;5093064;28;20044;-81
2021/08/28 00:29:29;;;;;;;21.75;19.75;;;;;;;24.93;58.79;99041.50;5093370;28;20024;-81
2021/08/28 00:31:54;;;;;;;22.83;20.52;;;;;;;24.57;58.72;98985.13;5091999;28;20017;-81
2021/08/28 00:34:20;;;;;;;23.10;20.77;;;;;;;24.94;58.95;99040.41;5093186;28;20097;-81
2021/08/28 00:36:45;;;;;;;22.67;19.60;;;;;;;24.48;58.62;98970.59;5093132;28;20016;-82
2021/08/28 00:39:11;;;;;;;24.48;22.17;;;;;;;24.81;58.59;99038.38;5093006;28;20374;-80
2021/08/28 00:41:36;;;;;;;23.42;20.98;;;;;;;24.42;58.80;98969.03;5091695;28;20051;-81
2021/08/28 00:44:02;;;;;;;24.60;20.27;;;;;;;24.53;58.77;98994.06;5093131;28;20028;-81
2021/08/28 00:46:28;;;;;;;22.70;20.40;;;;;;;24.45;58.86;98973.03;5091634;28;20020;-81
2021/08/28 00:48:53;;;;;;;21.52;19.40;;;;;;;24.62;58.75;98998.56;5092811;28;20035;-81
2021/08/28 00:51:19;;;;;;;22.73;20.25;;;;;;;24.75;58.91;99018.69;5092826;28;20500;-81
2021/08/28 00:53:46;;;;;;;21.63;19.35;;;;;;;24.88;58.46;99039.66;5093102;28;20055;-81
2021/08/28 00:56:11;;;;;;;22.85;20.55;;;;;;;24.57;58.77;99006.72;5092805;28;20028;-80
2021/08/28 00:58:36;;;;;;;25.20;21.38;;;;;;;24.30;59.07;98973.97;5092865;28;20020;-81
2021/08/28 01:01:06;;;;;;;24.15;21.80;;;;;;;24.83;58.89;99061.28;5092737;28;20107;-82
2021/08/28 01:03:33;;;;;;;23.27;21.00;;;;;;;24.16;59.03;98968.38;5091214;28;20035;-81
2021/08/28 01:06:06;;;;;;;21.73;19.45;;;;;;;24.36;58.85;99000.63;5092624;28;20405;-81
2021/08/28 01:08:53;;;;;;;24.52;20.75;;;;;;;24.33;59.09;99003.91;5092633;28;20032;-81
2021/08/28 01:11:47;;;;;;;22.48;20.27;;;;;;;24.74;59.14;99071.09;5092678;28;20046;-81
2021/08/28 01:14:27;;;;;;;21.67;19.52;;;;;;;24.75;59.15;99070.00;5092564;28;20020;-81
2021/08/28 01:17:08;;;;;;;21.98;19.95;;;;;;;24.76;59.12;99063.50;5092465;28;20447;-81
2021/08/28 01:19:34;;;;;;;;;;;;;;;24.55;59.35;99062.06;5093055;28;20481;-82
2021/08/28 01:22:01;;;;;;;20.48;18.25;;;;;;;24.48;59.29;99032.66;5092421;28;19915;-80
2021/08/28 01:24:26;;;;;;;21.83;19.63;;;;;;;24.29;59.12;99007.44;5091001;28;20020;-74
2021/08/28 01:27:03;;;;;;;20.30;18.23;;;;;;;24.54;58.95;99028.88;5092112;28;20044;-74
2021/08/28 01:29:33;;;;;;;22.05;19.73;;;;;;;24.33;58.91;99003.09;5092101;28;20030;-74
2021/08/28 01:32:00;;;;;;;21.00;18.85;;;;;;;24.64;58.97;99065.78;5090832;28;20016;-74
2021/08/28 01:34:27;;;;;;;20.70;18.60;;;;;;;24.60;59.25;99062.81;5092118;28;20102;-74
2021/08/28 01:36:53;;;;;;;21.90;19.55;;;;;;;24.61;59.04;99064.44;5091992;28;20625;-74
2021/08/28 01:39:19;;;;;;;22.40;20.15;;;;;;;24.61;59.26;99053.63;5092081;28;20396;-74
2021/08/28 01:41:49;;;;;;;22.30;20.05;;;;;;;24.20;59.23;98998.28;5090707;28;20024;-74
2021/08/28 01:44:16;;;;;;;23.40;21.10;;;;;;;24.19;59.20;99004.78;5091854;28;20099;-74
2021/08/28 01:46:43;;;;;;;21.85;19.75;;;;;;;24.48;59.21;99064.25;5091890;28;20020;-74
2021/08/28 01:49:10;;;;;;;21.85;19.63;;;;;;;24.32;59.50;99031.16;5091642;28;20024;-74
2021/08/28 01:51:38;;;;;;;21.73;19.40;;;;;;;24.06;59.30;98998.13;5091553;28;20439;-74
2021/08/28 01:54:04;;;;;;;21.30;19.17;;;;;;;24.24;59.38;99029.84;5090516;28;20020;-74
2021/08/28 01:56:30;;;;;;;21.85;19.77;;;;;;;24.17;59.35;99020.44;5090402;28;20020;-74
2021/08/28 01:58:57;;;;;;;22.55;20.35;;;;;;;23.92;59.14;98979.06;5091712;28;20450;-75
2021/08/28 02:01:23;;;;;;;21.85;19.75;;;;;;;24.38;59.33;99047.03;5091711;28;20077;-75
2021/08/28 02:03:48;;;;;;;25.13;21.23;;;;;;;24.19;59.25;99029.06;5091549;28;20020;-74
2021/08/28 02:06:23;;;;;;;20.90;18.98;;;;;;;24.37;59.57;99060.81;5091513;28;20163;-74
2021/08/28 02:08:59;;;;;;;23.42;20.08;;;;;;;24.38;59.19;99055.13;5091632;28;20031;-74
2021/08/28 02:11:31;;;;;;;21.10;19.00;;;;;;;24.27;59.44;99050.06;5091552;28;20024;-74
2021/08/28 02:14:10;;;;;;;23.08;20.83;;;;;;;24.31;59.54;99057.34;5091330;28;20028;-75
2021/08/28 02:16:39;;;;;;;22.30;20.05;;;;;;;24.28;59.74;99044.41;5090017;28;20118;-75
2021/08/28 02:19:20;;;;;;;19.83;17.80;;;;;;;24.43;59.70;99075.88;5091470;28;20020;-74
2021/08/28 02:21:50;;;;;;;22.63;20.17;;;;;;;24.45;59.54;99068.31;5091407;28;20039;-74
2021/08/28 02:24:21;;;;;;;22.23;20.02;;;;;;;24.45;59.39;99071.00;5091509;28;20103;-81
2021/08/28 02:27:01;;;;;;;24.08;21.40;;;;;;;24.42;59.37;99073.47;5090947;28;20055;-81
2021/08/28 02:29:40;;;;;;;22.85;19.25;;;;;;;24.42;59.59;99070.75;5091562;28;20028;-81
2021/08/28 02:32:07;;;;;;;21.77;19.73;;;;;;;24.42;59.50;99073.47;5091459;28;20016;-81
2021/08/28 02:34:34;;;;;;;23.38;21.00;;;;;;;24.39;59.54;99067.53;5091400;28;20012;-82
2021/08/28 02:37:02;;;;;;;23.55;20.10;;;;;;;24.09;59.70;99024.53;5093208;28;20111;-81
2021/08/28 02:39:29;;;;;;;21.25;19.15;;;;;;;23.96;60.02;98998.19;5095474;28;20467;-82
2021/08/28 02:41:57;;;;;;;21.63;19.52;;;;;;;23.89;59.81;98997.69;5095335;28;20024;-80
2021/08/28 02:44:25;;;;;;;22.25;20.05;;;;;;;24.45;60.34;99071.00;5095477;28;20424;-81
2021/08/28 02:46:52;;;;;;;23.33;20.98;;;;;;;24.40;60.41;99077.25;5095421;28;20043;-81
2021/08/28 02:49:18;;;;;;;20.67;18.58;;;;;;;23.89;60.17;98997.69;5095419;28;20094;-81
2021/08/28 02:51:46;;;;;;;22.48;20.23;;;;;;;24.41;60.64;99075.34;5095078;28;20058;-81
2021/08/28 02:54:13;;;;;;;23.05;20.85;;;;;;;24.13;60.39;99043.66;5095082;28;20099;-81
2021/08/28 02:56:40;;;;;;;25.70;23.20;;;;;;;23.95;60.96;99016.25;5095119;28;20027;-81
2021/08/28 02:59:06;;;;;;;25.25;22.10;;;;;;;23.63;61.04;98988.88;5095111;28;20568;-81
2021/08/28 03:01:34;;;;;;;26.35;23.55;;;;;;;24.28;61.03;99097.56;5093896;28;20016;-81
2021/08/28 03:03:59;;;;;;;26.83;23.55;;;;;;;24.29;61.51;99107.25;5094839;28;20103;-81
2021/08/28 03:06:30;;;;;;;23.13;20.25;;;;;;;23.91;61.47;99031.38;5094851;28;20468;-80
2021/08/28 03:08:56;;;;;;;22.90;20.30;;;;;;;24.05;61.58;99037.78;5094967;28;20034;-82
2021/08/28 03:11:22;;;;;;;24.45;21.85;;;;;;;24.43;61.65;99107.44;5094757;28;20107;-81
2021/08/28 03:13:47;;;;;;;25.08;22.40;;;;;;;24.34;61.29;99072.97;5094843;28;20063;-81
2021/08/28 03:16:15;;;;;;;24.60;21.95;;;;;;;24.02;61.50;99019.44;5094683;28;20021;-81
2021/08/28 03:18:43;;;;;;;22.20;19.95;;;;;;;24.51;61.30;99083.38;5094592;28;20026;-81
2021/08/28 03:21:11;;;;;;;30.58;23.10;;;;;;;24.54;61.54;99082.84;5093098;28;20028;-81
2021/08/28 03:23:39;;;;;;;28.83;24.00;;;;;;;24.30;61.62;99052.22;5094706;28;20048;-81
2021/08/28 03:26:05;;;;;;;33.13;29.63;;;;;;;24.26;62.04;99051.13;5094255;28;20105;-81
2021/08/28 03:28:32;;;;;;;29.25;23.55;;;;;;;24.28;62.21;99065.97;5094475;28;20020;-81
2021/08/28 03:30:58;;;;;;;28.02;24.00;;;;;;;24.63;62.25;99105.47;5094542;28;20024;-81
2021/08/28 03:33:24;;;;;;;33.97;29.08;;;;;;;24.24;62.63;99050.59;5094405;28;20103;-81
2021/08/28 03:35:50;;;;;;;32.60;27.08;;;;;;;24.52;62.86;99089.59;5094198;28;20476;-81
2021/08/28 03:38:16;;;;;;;30.92;27.40;;;;;;;24.56;63.19;99099.56;5094300;28;20510;-81
2021/08/28 03:40:44;;;;;;;34.95;29.80;;;;;;;24.65;63.71;99110.56;5094470;28;20032;-82
2021/08/28 03:43:10;;;;;;;39.83;30.45;;;;;;;24.38;63.97;99071.31;5094356;28;20461;-81
2021/08/28 03:45:36;;;;;;;46.35;31.83;;;;;;;24.65;64.23;99103.28;5094081;28;20020;-81
2021/08/28 03:48:02;;;;;;;47.17;34.15;;;;;;;24.77;64.51;99121.03;5091592;28;20497;-81
2021/08/28 03:50:28;;;;;;;50.70;34.35;;;;;;;24.76;65.13;99108.59;5094159;28;20023;-81
2021/08/28 03:52:53;;;;;;;60.25;38.67;;;;;;;24.75;65.43;99098.91;5094151;28;20027;-81
2021/08/28 03:55:19;;;;;;;67.03;43.47;;;;;;;24.52;65.51;99068.00;5093729;28;20016;-80
2021/08/28 03:57:44;;;;;;;60.40;40.15;;;;;;;24.51;66.38;99086.06;5092499;28;20027;-81
2021/08/28 04:00:10;;;;;;;69.10;41.63;;;;;;;24.63;66.56;99100.06;5092563;28;20024;-81
2021/08/28 04:02:35;;;;;;;64.25;42.65;;;;;;;24.88;66.79;99136.06;5093309;28;20032;-81
2021/08/28 04:05:01;;;;;;;69.80;45.28;;;;;;;24.89;66.99;99141.19;5093668;28;20081;-80
2021/08/28 04:07:26;;;;;;;78.10;49.55;;;;;;;24.68;66.93;99115.41;5093890;28;20020;-81
2021/08/28 04:09:52;;;;;;;68.10;45.28;;;;;;;24.90;67.45;99133.88;5093881;28;20107;-81
2021/08/28 04:12:17;;;;;;;64.28;44.97;;;;;;;24.91;67.14;99133.59;5093964;28;20035;-81
2021/08/28 04:14:42;;;;;;;66.30;45.05;;;;;;;24.92;67.49;99132.50;5093645;28;20452;-81
2021/08/28 04:17:08;;;;;;;71.25;48.17;;;;;;;24.55;67.27;99079.06;5093582;28;20020;-81
2021/08/28 04:19:33;;;;;;;63.38;43.67;;;;;;;24.75;67.41;99109.69;5093473;28;20024;-80
2021/08/28 04:21:59;;;;;;;64.18;44.78;;;;;;;24.36;67.61;99048.41;5093368;28;20093;-80
2021/08/28 04:24:24;;;;;;;67.85;47.38;;;;;;;24.94;67.75;99143.03;5093530;28;20027;-75
2021/08/28 04:26:50;;;;;;;68.68;47.97;;;;;;;24.90;67.41;99141.97;5093214;28;20052;-74
2021/08/28 04:29:15;;;;;;;72.28;50.03;;;;;;;24.64;67.47;99103.56;5093383;28;20099;-75
2021/08/28 04:31:41;;;;;;;65.88;47.28;;;;;;;24.80;68.22;99140.16;5093333;28;20461;-74
2021/08/28 04:34:07;;;;;;;66.70;45.25;;;;;;;24.37;68.14;99085.91;5093103;28;20054;-75
2021/08/28 04:36:32;;;;;;;67.53;47.33;;;;;;;24.76;68.05;99149.09;5091630;28;20023;-74
2021/08/28 04:38:58;;;;;;;64.35;46.00;;;;;;;24.68;68.16;99148.63;5092810;28;20550;-75
2021/08/28 04:41:23;;;;;;;66.78;48.90;;;;;;;24.73;68.30;99138.88;5091473;28;20056;-75
2021/08/28 04:43:48;;;;;;;69.53;49.00;;;;;;;24.38;68.02;99084.00;5091602;28;20059;-75
2021/08/28 04:46:14;;;;;;;65.82;48.08;;;;;;;24.80;68.13;99134.75;5091547;28;20108;-75
2021/08/28 04:48:39;;;;;;;57.35;44.42;;;;;;;24.51;67.71;99094.16;5092988;28;20401;-75
2021/08/28 04:51:05;;;;;;;60.05;45.38;;;;;;;24.67;67.56;99128.09;5092769;28;20073;-74
2021/08/28 04:53:30;;;;;;;55.97;45.30;;;;;;;24.76;67.75;99122.09;5092944;28;20024;-75
2021/08/28 04:55:55;;;;;;;47.50;39.70;;;;;;;24.72;67.51;99127.25;5092882;28;20024;-74
2021/08/28 04:58:21;;;;;;;57.25;44.70;;;;;;;24.65;67.51;99111.38;5092724;28;20107;-74
2021/08/28 05:00:46;;;;;;;45.75;39.15;;;;;;;24.97;67.10;99155.97;5092375;28;20484;-74
2021/08/28 05:03:12;;;;;;;46.95;37.42;;;;;;;24.83;67.20;99123.41;5092429;28;20099;-74
2021/08/28 05:05:37;;;;;;;48.83;43.42;;;;;;;24.80;66.89;99115.06;5091059;28;20031;-75
2021/08/28 05:08:03;;;;;;;49.40;42.15;;;;;;;25.03;67.04;99160.28;5092570;28;20024;-75
2021/08/28 05:10:28;;;;;;;46.03;39.83;;;;;;;24.66;66.58;99110.28;5092639;28;20020;-74
2021/08/28 05:12:53;;;;;;;47.50;39.67;;;;;;;25.09;66.67;99167.25;5092424;28;20028;-74
2021/08/28 05:15:19;;;;;;;39.83;35.75;;;;;;;25.14;66.64;99177.22;5092490;28;20407;-74
2021/08/28 05:17:45;;;;;;;42.75;38.25;;;;;;;25.17;66.34;99165.84;5092462;28;20026;-74
2021/08/28 05:20:10;;;;;;;38.92;34.80;;;;;;;25.03;66.18;99150.28;5092192;28;20116;-74
2021/08/28 05:22:36;;;;;;;43.63;39.00;;;;;;;25.17;66.38;99179.34;5092211;28;20481;-75
2021/08/28 05:25:02;;;;;;;45.47;40.53;;;;;;;25.08;66.18;99152.13;5090844;28;20058;-74
2021/08/28 05:27:27;;;;;;;40.88;36.13;;;;;;;24.52;66.33;99079.59;5092244;28;20031;-74
2021/08/28 05:29:53;;;;;;;42.10;37.75;;;;;;;24.97;66.48;99146.00;5092167;28;20012;-74
2021/08/28 05:32:18;;;;;;;48.60;43.13;;;;;;;25.10;66.66;99182.38;5091951;28;20488;-74
2021/08/28 05:34:43;;;;;;;43.40;38.85;;;;;;;24.97;66.94;99183.81;5090855;28;20016;-74
2021/08/28 05:37:09;;;;;;;49.15;43.97;;;;;;;24.98;66.97;99179.22;5092271;28;20020;-74
2021/08/28 05:39:34;;;;;;;46.92;41.83;;;;;;;24.98;66.81;99176.53;5092047;28;20113;-75
2021/08/28 05:42:00;;;;;;;55.47;48.17;;;;;;;24.52;67.20;99101.19;5092226;28;20024;-75
2021/08/28 05:44:26;;;;;;;56.20;46.95;;;;;;;24.90;67.37;99169.00;5091919;28;20027;-75
2021/08/28 05:46:51;;;;;;;56.33;49.00;;;;;;;25.04;67.23;99167.28;5090543;28;20047;-74
2021/08/28 05:49:17;;;;;;;62.33;52.85;;;;;;;25.06;66.74;99158.91;5091722;28;20047;-75
2021/08/28 05:51:42;;;;;;;56.67;50.20;;;;;;;25.18;66.87;99168.25;5090357;28;20072;-74
2021/08/28 05:54:07;;;;;;;58.80;49.40;;;;;;;25.22;66.55;99168.50;5091729;28;20455;-74
2021/08/28 05:56:33;;;;;;;53.17;44.08;;;;;;;25.28;66.39;99170.91;5091806;28;20004;-75
2021/08/28 05:58:58;;;;;;;62.17;53.13;;;;;;;25.34;66.48;99166.25;5091654;28;20023;-75
2021/08/28 06:01:24;;;;;;;56.67;47.88;;;;;;;25.36;66.51;99171.38;5091561;28;20020;-75
2021/08/28 06:03:49;;;;;;;54.00;47.33;;;;;;;25.38;66.08;99155.69;5091449;28;20026;-75
2021/08/28 06:06:15;;;;;;;56.00;49.92;;;;;;;25.12;66.25;99109.97;5090322;28;20401;-75
2021/08/28 06:08:40;;;;;;;52.28;46.78;;;;;;;25.59;65.78;99173.34;5091660;28;20020;-74
2021/08/28 06:11:05;;;;;;;47.20;42.13;;;;;;;25.10;65.79;99100.53;5089393;28;20028;-74
2021/08/28 06:13:31;;;;;;;38.20;34.40;;;;;;;25.60;65.36;99175.75;5091359;28;20401;-74
2021/08/28 06:15:56;;;;;;;38.67;33.88;;;;;;;25.23;64.99;99118.78;5090068;28;20020;-74
2021/08/28 06:18:22;;;;;;;41.20;36.92;;;;;;;25.17;64.87;99107.22;5091659;28;20016;-75
2021/08/28 06:20:47;;;;;;;39.30;35.30;;;;;;;25.58;65.00;99177.13;5091498;28;20024;-75
2021/08/28 06:23:12;;;;;;;37.30;33.60;;;;;;;25.50;65.14;99173.16;5091450;28;20103;-74
2021/08/28 06:25:38;;;;;;;37.08;33.35;;;;;;;25.28;64.82;99134.97;5091067;28;20036;-74
2021/08/28 06:28:03;;;;;;;35.15;31.48;;;;;;;25.41;64.61;99147.81;5090081;28;20024;-74
2021/08/28 06:30:29;;;;;;;32.03;28.58;;;;;;;25.54;64.41;99166.06;5091293;28;20026;-75
2021/08/28 06:32:54;;;;;;;37.63;33.83;;;;;;;25.55;64.34;99156.06;5091346;28;20393;-74
2021/08/28 06:35:20;;;;;;;32.53;29.27;;;;;;;25.56;64.13;99171.19;5091184;28;20016;-74
2021/08/28 06:37:45;;;;;;;36.50;32.88;;;;;;;25.53;64.00;99171.75;5091030;28;20505;-75
2021/08/28 06:40:11;;;;;;;34.13;30.83;;;;;;;25.45;64.26;99169.69;5091231;28;20048;-74
2021/08/28 06:42:37;;;;;;;31.13;27.90;;;;;;;25.47;64.19;99176.41;5091165;28;20062;-74
2021/08/28 06:45:03;;;;;;;35.42;31.92;;;;;;;25.54;63.55;99176.09;5090897;28;20024;-74
2021/08/28 06:47:28;;;;;;;30.02;27.02;;;;;;;25.53;63.45;99171.75;5090878;28;20028;-74
2021/08/28 06:49:54;;;;;;;29.02;25.90;;;;;;;25.51;63.46;99155.84;5089845;28;20026;-74
2021/08/28 06:52:19;;;;;;;31.35;28.45;;;;;;;25.67;62.81;99163.81;5091170;28;20031;-74
2021/08/28 06:54:45;;;;;;;27.42;24.73;;;;;;;25.74;63.08;99172.41;5089728;28;20048;-74
2021/08/28 06:57:10;;;;;;;30.60;22.67;;;;;;;25.43;62.38;99110.50;5090890;28;20028;-74
2021/08/28 06:59:35;;;;;;;27.00;24.20;;;;;;;25.67;62.13;99125.97;5091038;28;20024;-74
2021/08/28 07:02:01;;;;;;;28.52;25.90;;;;;;;25.69;61.43;99129.19;5089663;28;20030;-74
2021/08/28 07:04:26;;;;;;;29.90;26.77;;;;;;;26.08;61.10;99183.16;5090860;28;20489;-74
2021/08/28 07:06:52;;;;;;;27.13;24.58;;;;;;;26.09;60.59;99190.97;5090844;28;20020;-74
2021/08/28 07:09:17;;;;;;;35.45;31.38;;;;;;;25.85;60.65;99128.72;5090943;28;20024;-74
2021/08/28 07:11:43;;;;;;;37.17;33.03;;;;;;;26.20;60.59;99167.31;5090979;28;20028;-75
2021/08/28 07:14:08;;;;;;;37.40;31.42;;;;;;;25.94;60.34;99116.19;5090745;28;20024;-75
2021/08/28 07:16:34;;;;;;;32.67;29.30;;;;;;;26.28;59.67;99169.38;5090824;28;20107;-75
2021/08/28 07:18:59;;;;;;;36.25;31.75;;;;;;;26.35;59.43;99163.63;5090783;28;20078;-75
2021/08/28 07:21:24;;;;;;;48.35;39.17;;;;;;;26.02;59.38;99103.13;5090896;28;20034;-74
2021/08/28 07:23:50;;;;;;;36.42;32.53;;;;;;;26.43;59.18;99168.38;5094128;28;20081;-74
2021/08/28 07:26:16;;;;;;;38.05;33.40;;;;;;;26.55;58.96;99163.34;5094332;28;20098;-74
2021/08/28 07:28:42;;;;;;;33.95;27.58;;;;;;;26.21;58.12;99079.59;5093264;28;20027;-75
2021/08/28 07:31:08;;;;;;;30.50;27.27;;;;;;;26.58;57.82;99132.97;5094350;28;20490;-75
2021/08/28 07:33:33;;;;;;;28.17;25.38;;;;;;;26.40;57.23;99090.47;5094239;28;20052;-75
2021/08/28 07:35:59;;;;;;;28.85;25.83;;;;;;;26.80;57.07;99148.66;5094170;28;20482;-74
2021/08/28 07:38:24;;;;;;;30.27;24.45;;;;;;;26.56;57.11;99103.47;5094002;28;20053;-74
2021/08/28 07:40:49;;;;;;;27.30;24.65;;;;;;;26.94;56.66;99140.59;5094080;28;20112;-75
2021/08/28 07:43:15;;;;;;;29.20;25.63;;;;;;;26.98;56.53;99139.72;5093993;28;20028;-75
2021/08/28 07:45:40;;;;;;;26.00;23.40;;;;;;;26.96;55.78;99114.00;5094124;28;20035;-74
2021/08/28 07:48:06;;;;;;;27.80;24.90;;;;;;;27.08;55.95;99133.34;5094254;28;20416;-74
2021/08/28 07:50:31;;;;;;;25.80;23.05;;;;;;;26.70;55.80;99059.41;5092892;28;20511;-75
2021/08/28 07:52:57;;;;;;;26.13;23.27;;;;;;;27.00;55.08;99096.09;5094002;28;20062;-74
2021/08/28 07:55:25;;;;;;;26.13;23.55;;;;;;;27.28;55.42;99115.94;5093979;28;20023;-73
2021/08/28 07:57:51;;;;;;;25.30;22.73;;;;;;;27.03;54.26;99063.78;5093808;28;20024;-73
2021/08/28 08:00:17;;;;;;;23.73;21.15;;;;;;;27.19;54.31;99061.59;5093913;28;20053;-73
2021/08/28 08:02:42;;;;;;;26.02;23.35;;;;;;;27.49;53.88;99104.41;5093910;28;20031;-74
2021/08/28 08:05:08;;;;;;;22.83;20.48;;;;;;;27.30;53.64;99059.50;5093713;28;20474;-74
2021/08/28 08:07:33;;;;;;;23.40;21.20;;;;;;;27.64;53.04;99094.44;5092478;28;20024;-73
2021/08/28 08:09:59;;;;;;;23.35;20.95;;;;;;;27.38;53.04;99035.22;5092384;28;20031;-73
2021/08/28 08:12:24;;;;;;;21.48;19.45;;;;;;;27.69;52.80;99067.22;5093876;28;20030;-74
2021/08/28 08:14:50;;;;;;;21.10;18.90;;;;;;;27.76;52.21;99059.47;5093482;28;20508;-73
2021/08/28 08:17:16;;;;;;;21.20;19.20;;;;;;;27.83;51.90;99057.16;5093366;28;20031;-73
2021/08/28 08:19:42;;;;;;;21.35;19.25;;;;;;;28.16;51.25;99091.16;5093518;28;20067;-73
2021/08/28 08:22:08;;;;;;;22.38;20.23;;;;;;;28.11;51.55;99082.34;5093498;28;20048;-73
2021/08/28 08:24:34;;;;;;;21.38;18.75;;;;;;;27.88;50.44;99032.63;5093250;28;20413;-73
2021/08/28 08:26:59;;;;;;;20.52;18.45;;;;;;;28.26;50.62;99084.78;5091619;28;20055;-74
2021/08/28 08:29:25;;;;;;;21.27;19.13;;;;;;;28.34;50.63;99073.19;5093167;28;20032;-73
2021/08/28 08:31:53;;;;;;;20.58;18.55;;;;;;;28.26;50.64;99048.69;5093249;28;20405;-74
2021/08/28 08:34:20;;;;;;;20.23;18.27;;;;;;;28.57;50.00;99082.16;5092535;28;20093;-73
2021/08/28 08:36:45;;;;;;;20.85;18.85;;;;;;;28.69;50.08;99073.47;5093024;28;20102;-74
2021/08/28 08:39:11;;;;;;;23.02;19.25;;;;;;;28.52;49.61;99029.88;5093554;28;20034;-73
2021/08/28 08:41:38;;;;;;;21.10;19.05;;;;;;;28.96;49.46;99078.78;5091639;28;20032;-73
2021/08/28 08:44:04;;;;;;;22.88;20.48;;;;;;;28.95;48.64;99069.03;5093000;28;20024;-74
2021/08/28 08:46:30;;;;;;;20.63;18.42;;;;;;;28.98;48.45;99079.28;5091278;28;20031;-74
2021/08/28 08:48:58;;;;;;;22.35;20.10;;;;;;;29.10;48.60;99071.38;5092649;28;20066;-74
2021/08/28 08:51:24;;;;;;;20.50;18.42;;;;;;;29.04;48.08;99041.94;5092759;28;20054;-73
2021/08/28 08:53:49;;;;;;;21.15;19.17;;;;;;;29.32;47.60;99062.38;5093038;28;20032;-75
2021/08/28 08:56:18;;;;;;;21.75;19.42;;;;;;;29.34;47.23;99040.31;5092332;28;20031;-74
2021/08/28 08:58:44;;;;;;;23.60;20.38;;;;;;;29.68;47.21;99067.66;5092621;28;20009;-74
2021/08/28 09:01:09;;;;;;;22.60;20.13;;;;;;;29.65;46.72;99040.28;5092598;28;20539;-73
2021/08/28 09:03:35;;;;;;;23.05;20.77;;;;;;;29.61;46.17;98998.50;5091250;28;20020;-73
2021/08/28 09:06:01;;;;;;;22.90;20.70;;;;;;;29.98;46.15;99027.88;5092498;28;20020;-73
2021/08/28 09:08:27;;;;;;;22.52;20.05;;;;;;;30.35;45.60;99055.66;5092558;28;20035;-73
2021/08/28 09:10:52;;;;;;;23.35;20.80;;;;;;;30.16;45.51;98996.06;5092420;28;20024;-74
2021/08/28 09:13:21;;;;;;;23.88;21.67;;;;;;;30.55;45.22;99040.59;5091163;28;20081;-74
2021/08/28 09:15:48;;;;;;;25.60;22.77;;;;;;;30.63;44.68;99042.56;5092559;28;20445;-73
2021/08/28 09:18:14;;;;;;;24.52;22.02;;;;;;;30.57;44.97;99011.91;5091106;28;20035;-74
2021/08/28 09:20:39;;;;;;;25.05;22.58;;;;;;;30.85;44.40;99031.44;5091037;28;20028;-74
2021/08/28 09:23:11;;;;;;;24.92;22.48;;;;;;;30.86;44.16;99005.78;5092334;28;20523;-73
2021/08/28 09:25:39;;;;;;;25.85;23.15;;;;;;;30.89;43.90;98999.69;5090599;28;20428;-74
2021/08/28 09:28:09;;;;;;;26.40;23.15;;;;;;;31.03;43.69;98996.75;5092163;28;20107;-74
2021/08/28 09:30:38;;;;;;;26.27;23.55;;;;;;;31.20;43.35;98996.72;5090786;28;20059;-73
2021/08/28 09:33:09;;;;;;;23.83;21.13;;;;;;;31.20;43.34;98982.28;5091926;28;20485;-72
2021/08/28 09:35:39;;;;;;;26.65;23.77;;;;;;;31.29;42.97;98964.78;5092329;28;20027;-74
2021/08/28 09:38:08;;;;;;;25.75;23.05;;;;;;;31.59;43.24;98978.41;5092194;28;20059;-74
2021/08/28 09:40:42;;;;;;;27.20;24.50;;;;;;;31.82;42.29;98978.94;5092091;28;20024;-74
2021/08/28 09:43:13;;;;;;;27.48;24.55;;;;;;;31.99;42.10;99000.66;5092098;28;20613;-74
2021/08/28 09:45:38;;;;;;;;;;;;;;;32.03;42.22;98998.88;5091536;28;20539;-75
2021/08/28 09:48:07;;;;;;;25.52;22.85;;;;;;;32.20;41.80;98997.94;5091544;28;19908;-75
2021/08/28 09:50:39;;;;;;;27.77;24.83;;;;;;;32.29;41.54;98997.88;5091689;28;20095;-75
2021/08/28 09:53:22;;;;;;;25.10;22.60;;;;;;;32.45;41.19;98996.13;5091726;28;20023;-72
2021/08/28 09:55:56;;;;;;;27.63;24.75;;;;;;;32.35;40.98;98953.63;5091020;28;20035;-73
2021/08/28 09:58:31;;;;;;;27.45;24.45;;;;;;;32.83;40.92;98991.28;5090236;28;20031;-73
2021/08/28 10:01:01;;;;;;;27.33;24.55;;;;;;;33.08;40.56;98991.31;5090243;28;20500;-72
2021/08/28 10:03:28;;;;;;;26.55;24.02;;;;;;;33.21;39.75;99003.88;5090161;28;20024;-74
2021/08/28 10:05:54;;;;;;;29.95;25.40;;;;;;;33.14;39.97;98985.28;5091536;28;20396;-74
2021/08/28 10:08:20;;;;;;;26.73;23.23;;;;;;;33.06;39.48;98944.38;5091632;28;20073;-73
2021/08/28 10:10:46;;;;;;;29.25;26.23;;;;;;;33.42;39.30;98976.41;5091578;28;20032;-74
2021/08/28 10:13:11;;;;;;;27.52;24.55;;;;;;;33.54;39.07;98984.66;5091518;28;20099;-73
2021/08/28 10:15:37;;;;;;;29.55;26.27;;;;;;;33.58;39.14;98982.03;5090064;28;20018;-73
2021/08/28 10:18:05;;;;;;;26.17;23.48;;;;;;;33.42;38.85;98946.31;5090308;28;20055;-73
2021/08/28 10:20:31;;;;;;;28.30;24.77;;;;;;;33.31;38.71;98918.63;5091550;28;20024;-73
2021/08/28 10:23:01;;;;;;;26.17;23.50;;;;;;;33.75;38.35;98963.41;5091439;28;20020;-74
2021/08/28 10:25:29;;;;;;;26.50;23.80;;;;;;;33.86;37.78;98958.25;5091146;28;20071;-73
2021/08/28 10:27:55;;;;;;;24.30;21.90;;;;;;;34.05;37.80;98963.91;5090973;28;20606;-74
2021/08/28 10:30:23;;;;;;;22.90;19.58;;;;;;;34.24;36.64;98955.06;5091287;28;20024;-74
2021/08/28 10:32:49;;;;;;;19.35;17.27;;;;;;;34.47;36.37;98957.28;5091503;28;20103;-74
2021/08/28 10:35:17;;;;;;;22.30;19.83;;;;;;;34.50;35.94;98929.97;5091243;28;20103;-74
2021/08/28 10:37:43;;;;;;;23.75;21.20;;;;;;;34.72;35.89;98958.72;5091466;28;20024;-74
2021/08/28 10:40:31;;;;;;;22.55;20.23;;;;;;;34.88;35.54;98951.34;5091130;28;20550;-74
2021/08/28 10:43:03;;;;;;;23.08;20.35;;;;;;;34.99;34.98;98948.88;5090006;28;20032;-73
2021/08/28 10:45:34;;;;;;;22.23;18.40;;;;;;;34.98;35.36;98941.81;5091069;28;20111;-72
2021/08/28 10:48:02;;;;;;;22.52;20.30;;;;;;;35.18;34.92;98943.47;5091156;28;20440;-75
2021/08/28 10:50:39;;;;;;;20.35;18.35;;;;;;;35.39;34.92;98934.16;5089712;28;20024;-74
2021/08/28 10:53:06;;;;;;;20.63;18.30;;;;;;;35.57;34.10;98936.16;5089785;28;20072;-75
2021/08/28 10:55:38;;;;;;;20.73;17.27;;;;;;;35.63;33.88;98920.97;5089851;28;20020;-74
2021/08/28 10:58:13;;;;;;;20.67;18.48;;;;;;;35.67;33.64;98923.81;5092982;28;20494;-72
2021/08/28 11:00:44;;;;;;;20.40;18.23;;;;;;;35.75;33.70;98925.56;5095006;28;20059;-75
2021/08/28 11:03:30;;;;;;;20.85;18.58;;;;;;;35.33;33.22;98857.59;5093487;28;20078;-75
2021/08/28 11:06:11;;;;;;;18.80;16.75;;;;;;;36.00;32.74;98922.56;5093636;28;20036;-72
2021/08/28 11:08:53;;;;;;;21.27;17.77;;;;;;;36.02;31.91;98898.28;5094735;28;20039;-75
2021/08/28 11:11:38;;;;;;;19.38;16.00;;;;;;;36.16;32.59;98912.28;5093546;28;20049;-75
2021/08/28 11:14:04;;;;;;;15.98;14.23;;;;;;;36.22;31.63;98900.63;5093265;28;20457;-75
2021/08/28 11:16:42;;;;;;;21.23;16.95;;;;;;;36.38;31.67;98894.28;5094742;28;20020;-75